sensor_id;sensor_type;location;lat;lon;timestamp;P1;durP1;ratioP1;P2;durP2;ratioP2
22425;SDS011;11380;50.822;15.790;2023-08-08T00:03:49;60.30;;;50.53;;
22425;SDS011;11380;50.822;15.790;2023-08-08T00:08:56;59.60;;;50.90;;
22425;SDS011;11380;50.822;15.790;2023-08-08T00:19:09;59.33;;;50.58;;
22425;SDS011;11380;50.822;15.790;2023-08-08T00:24:16;58.23;;;50.70;;
22425;SDS011;11380;50.822;15.790;2023-08-08T00:29:24;59.97;;;50.77;;
22425;SDS011;11380;50.822;15.790;2023-08-08T00:34:31;59.43;;;50.90;;
22425;SDS011;11380;50.822;15.790;2023-08-08T00:39:38;58.10;;;50.77;;
22425;SDS011;11380;50.822;15.790;2023-08-08T00:44:47;61.70;;;50.93;;
22425;SDS011;11380;50.822;15.790;2023-08-08T00:49:54;57.73;;;50.40;;
22425;SDS011;11380;50.822;15.790;2023-08-08T00:55:02;62.43;;;51.40;;
22425;SDS011;11380;50.822;15.790;2023-08-08T01:00:11;57.07;;;50.27;;
22425;SDS011;11380;50.822;15.790;2023-08-08T01:05:19;58.38;;;50.03;;
22425;SDS011;11380;50.822;15.790;2023-08-08T01:10:28;57.83;;;50.83;;
22425;SDS011;11380;50.822;15.790;2023-08-08T01:15:42;58.96;;;50.70;;
22425;SDS011;11380;50.822;15.790;2023-08-08T01:20:51;58.76;;;50.74;;
22425;SDS011;11380;50.822;15.790;2023-08-08T01:26:00;57.60;;;50.37;;
22425;SDS011;11380;50.822;15.790;2023-08-08T01:31:07;57.00;;;50.13;;
22425;SDS011;11380;50.822;15.790;2023-08-08T01:41:48;57.33;;;50.37;;
22425;SDS011;11380;50.822;15.790;2023-08-08T01:47:00;57.30;;;50.33;;
22425;SDS011;11380;50.822;15.790;2023-08-08T01:52:07;58.40;;;50.50;;
22425;SDS011;11380;50.822;15.790;2023-08-08T01:57:14;56.00;;;49.80;;
22425;SDS011;11380;50.822;15.790;2023-08-08T02:02:21;57.20;;;50.30;;
22425;SDS011;11380;50.822;15.790;2023-08-08T02:07:30;59.37;;;50.43;;
22425;SDS011;11380;50.822;15.790;2023-08-08T02:12:36;57.77;;;50.50;;
22425;SDS011;11380;50.822;15.790;2023-08-08T02:17:45;56.77;;;50.37;;
22425;SDS011;11380;50.822;15.790;2023-08-08T02:22:52;56.17;;;49.97;;
22425;SDS011;11380;50.822;15.790;2023-08-08T02:27:59;56.73;;;50.03;;
22425;SDS011;11380;50.822;15.790;2023-08-08T02:38:12;58.96;;;49.94;;
22425;SDS011;11380;50.822;15.790;2023-08-08T02:43:19;57.40;;;50.20;;
22425;SDS011;11380;50.822;15.790;2023-08-08T02:48:26;58.27;;;50.43;;
22425;SDS011;11380;50.822;15.790;2023-08-08T02:53:34;56.63;;;50.23;;
22425;SDS011;11380;50.822;15.790;2023-08-08T02:58:41;57.30;;;50.40;;
22425;SDS011;11380;50.822;15.790;2023-08-08T03:03:48;56.93;;;50.30;;
22425;SDS011;11380;50.822;15.790;2023-08-08T03:08:55;58.83;;;50.00;;
22425;SDS011;11380;50.822;15.790;2023-08-08T03:19:08;58.55;;;50.05;;
22425;SDS011;11380;50.822;15.790;2023-08-08T03:24:15;56.40;;;50.20;;
22425;SDS011;11380;50.822;15.790;2023-08-08T03:29:22;58.55;;;50.15;;
22425;SDS011;11380;50.822;15.790;2023-08-08T03:34:30;56.57;;;50.03;;
22425;SDS011;11380;50.822;15.790;2023-08-08T03:39:38;57.07;;;50.20;;
22425;SDS011;11380;50.822;15.790;2023-08-08T03:44:45;55.77;;;49.63;;
22425;SDS011;11380;50.822;15.790;2023-08-08T03:49:53;58.93;;;50.20;;
22425;SDS011;11380;50.822;15.790;2023-08-08T03:55:01;56.30;;;50.13;;
22425;SDS011;11380;50.822;15.790;2023-08-08T04:00:11;57.70;;;50.17;;
22425;SDS011;11380;50.822;15.790;2023-08-08T04:05:18;56.35;;;50.15;;
22425;SDS011;11380;50.822;15.790;2023-08-08T04:10:26;57.88;;;50.12;;
22425;SDS011;11380;50.822;15.790;2023-08-08T04:15:33;56.33;;;50.17;;
22425;SDS011;11380;50.822;15.790;2023-08-08T04:20:41;58.07;;;51.00;;
22425;SDS011;11380;50.822;15.790;2023-08-08T04:25:49;57.10;;;50.50;;
22425;SDS011;11380;50.822;15.790;2023-08-08T04:30:58;57.40;;;50.80;;
22425;SDS011;11380;50.822;15.790;2023-08-08T04:36:05;61.03;;;50.47;;
22425;SDS011;11380;50.822;15.790;2023-08-08T04:41:12;58.10;;;50.67;;
22425;SDS011;11380;50.822;15.790;2023-08-08T04:46:20;56.35;;;50.15;;
22425;SDS011;11380;50.822;15.790;2023-08-08T04:51:26;57.55;;;50.58;;
22425;SDS011;11380;50.822;15.790;2023-08-08T04:56:34;56.93;;;50.53;;
22425;SDS011;11380;50.822;15.790;2023-08-08T05:01:40;58.20;;;50.47;;
22425;SDS011;11380;50.822;15.790;2023-08-08T05:06:47;57.93;;;50.20;;
22425;SDS011;11380;50.822;15.790;2023-08-08T05:11:54;57.03;;;50.40;;
22425;SDS011;11380;50.822;15.790;2023-08-08T05:17:01;57.87;;;50.23;;
22425;SDS011;11380;50.822;15.790;2023-08-08T05:22:10;57.23;;;50.57;;
22425;SDS011;11380;50.822;15.790;2023-08-08T05:27:17;57.63;;;50.77;;
22425;SDS011;11380;50.822;15.790;2023-08-08T05:32:24;57.75;;;50.78;;
22425;SDS011;11380;50.822;15.790;2023-08-08T05:37:31;57.77;;;50.67;;
22425;SDS011;11380;50.822;15.790;2023-08-08T05:42:38;58.20;;;50.93;;
22425;SDS011;11380;50.822;15.790;2023-08-08T05:47:45;60.37;;;50.97;;
22425;SDS011;11380;50.822;15.790;2023-08-08T05:52:52;58.07;;;50.50;;
22425;SDS011;11380;50.822;15.790;2023-08-08T05:57:59;58.13;;;50.48;;
22425;SDS011;11380;50.822;15.790;2023-08-08T06:03:06;60.83;;;50.87;;
22425;SDS011;11380;50.822;15.790;2023-08-08T06:08:13;61.08;;;51.10;;
22425;SDS011;11380;50.822;15.790;2023-08-08T06:13:22;60.15;;;51.08;;
22425;SDS011;11380;50.822;15.790;2023-08-08T06:18:29;59.95;;;50.48;;
22425;SDS011;11380;50.822;15.790;2023-08-08T06:23:36;59.00;;;51.03;;
22425;SDS011;11380;50.822;15.790;2023-08-08T06:28:44;59.73;;;50.57;;
22425;SDS011;11380;50.822;15.790;2023-08-08T06:33:51;58.73;;;50.77;;
22425;SDS011;11380;50.822;15.790;2023-08-08T06:38:58;58.50;;;50.67;;
22425;SDS011;11380;50.822;15.790;2023-08-08T06:49:13;59.10;;;51.08;;
22425;SDS011;11380;50.822;15.790;2023-08-08T06:54:20;59.23;;;50.88;;
22425;SDS011;11380;50.822;15.790;2023-08-08T06:59:27;59.70;;;51.20;;
22425;SDS011;11380;50.822;15.790;2023-08-08T07:04:37;60.00;;;50.90;;
22425;SDS011;11380;50.822;15.790;2023-08-08T07:09:44;60.17;;;51.33;;
22425;SDS011;11380;50.822;15.790;2023-08-08T07:14:51;60.97;;;51.43;;
22425;SDS011;11380;50.822;15.790;2023-08-08T07:19:59;60.87;;;51.77;;
22425;SDS011;11380;50.822;15.790;2023-08-08T07:25:06;61.10;;;51.57;;
22425;SDS011;11380;50.822;15.790;2023-08-08T07:30:15;60.77;;;51.47;;
22425;SDS011;11380;50.822;15.790;2023-08-08T07:35:23;60.87;;;51.40;;
22425;SDS011;11380;50.822;15.790;2023-08-08T07:40:31;61.70;;;51.40;;
22425;SDS011;11380;50.822;15.790;2023-08-08T07:45:37;60.40;;;51.20;;
22425;SDS011;11380;50.822;15.790;2023-08-08T07:50:45;60.63;;;51.23;;
22425;SDS011;11380;50.822;15.790;2023-08-08T07:55:52;61.37;;;51.43;;
22425;SDS011;11380;50.822;15.790;2023-08-08T08:06:06;61.00;;;51.70;;
22425;SDS011;11380;50.822;15.790;2023-08-08T08:11:13;60.80;;;51.20;;
22425;SDS011;11380;50.822;15.790;2023-08-08T08:16:21;61.17;;;51.57;;
22425;SDS011;11380;50.822;15.790;2023-08-08T08:21:28;61.63;;;51.63;;
22425;SDS011;11380;50.822;15.790;2023-08-08T08:26:35;61.97;;;51.70;;
22425;SDS011;11380;50.822;15.790;2023-08-08T08:31:42;62.73;;;51.57;;
22425;SDS011;11380;50.822;15.790;2023-08-08T08:41:56;61.03;;;51.60;;
22425;SDS011;11380;50.822;15.790;2023-08-08T08:47:13;60.73;;;51.77;;
22425;SDS011;11380;50.822;15.790;2023-08-08T08:52:23;61.70;;;51.87;;
22425;SDS011;11380;50.822;15.790;2023-08-08T08:57:31;61.83;;;51.83;;
22425;SDS011;11380;50.822;15.790;2023-08-08T09:02:38;61.50;;;51.70;;
22425;SDS011;11380;50.822;15.790;2023-08-08T09:07:45;63.33;;;52.70;;
22425;SDS011;11380;50.822;15.790;2023-08-08T09:12:53;62.47;;;52.20;;
22425;SDS011;11380;50.822;15.790;2023-08-08T09:28:16;61.97;;;51.77;;
22425;SDS011;11380;50.822;15.790;2023-08-08T09:33:23;62.95;;;52.38;;
22425;SDS011;11380;50.822;15.790;2023-08-08T09:38:35;62.40;;;52.27;;
22425;SDS011;11380;50.822;15.790;2023-08-08T09:43:47;62.00;;;52.17;;
22425;SDS011;11380;50.822;15.790;2023-08-08T09:48:50;61.93;;;51.63;;
22425;SDS011;11380;50.822;15.790;2023-08-08T09:53:57;63.57;;;51.90;;
22425;SDS011;11380;50.822;15.790;2023-08-08T09:59:04;60.97;;;51.83;;
22425;SDS011;11380;50.822;15.790;2023-08-08T10:04:12;64.60;;;51.83;;
22425;SDS011;11380;50.822;15.790;2023-08-08T10:09:20;64.83;;;51.90;;
22425;SDS011;11380;50.822;15.790;2023-08-08T10:14:32;62.30;;;52.07;;
22425;SDS011;11380;50.822;15.790;2023-08-08T10:19:38;62.23;;;51.50;;
22425;SDS011;11380;50.822;15.790;2023-08-08T10:24:46;63.27;;;51.90;;
22425;SDS011;11380;50.822;15.790;2023-08-08T10:30:00;62.93;;;52.00;;
22425;SDS011;11380;50.822;15.790;2023-08-08T10:35:15;63.10;;;52.40;;
22425;SDS011;11380;50.822;15.790;2023-08-08T10:40:22;63.53;;;52.33;;
22425;SDS011;11380;50.822;15.790;2023-08-08T10:45:31;64.75;;;52.98;;
22425;SDS011;11380;50.822;15.790;2023-08-08T10:50:44;65.03;;;52.47;;
22425;SDS011;11380;50.822;15.790;2023-08-08T10:55:47;64.33;;;53.00;;
22425;SDS011;11380;50.822;15.790;2023-08-08T11:01:11;63.60;;;52.47;;
22425;SDS011;11380;50.822;15.790;2023-08-08T11:06:19;63.83;;;52.30;;
22425;SDS011;11380;50.822;15.790;2023-08-08T11:11:27;64.27;;;52.53;;
22425;SDS011;11380;50.822;15.790;2023-08-08T11:16:34;63.77;;;52.53;;
22425;SDS011;11380;50.822;15.790;2023-08-08T11:21:43;63.93;;;52.40;;
22425;SDS011;11380;50.822;15.790;2023-08-08T11:26:57;63.80;;;52.50;;
22425;SDS011;11380;50.822;15.790;2023-08-08T11:32:03;65.07;;;52.97;;
22425;SDS011;11380;50.822;15.790;2023-08-08T11:37:12;65.37;;;52.77;;
22425;SDS011;11380;50.822;15.790;2023-08-08T11:42:19;66.07;;;53.27;;
22425;SDS011;11380;50.822;15.790;2023-08-08T11:47:26;66.37;;;53.07;;
22425;SDS011;11380;50.822;15.790;2023-08-08T11:52:39;66.00;;;53.00;;
22425;SDS011;11380;50.822;15.790;2023-08-08T11:57:50;68.33;;;53.25;;
22425;SDS011;11380;50.822;15.790;2023-08-08T12:03:01;67.60;;;53.40;;
22425;SDS011;11380;50.822;15.790;2023-08-08T12:08:09;68.67;;;54.17;;
22425;SDS011;11380;50.822;15.790;2023-08-08T12:13:19;67.62;;;53.73;;
22425;SDS011;11380;50.822;15.790;2023-08-08T12:18:28;70.60;;;53.50;;
22425;SDS011;11380;50.822;15.790;2023-08-08T12:23:36;66.43;;;53.37;;
22425;SDS011;11380;50.822;15.790;2023-08-08T12:28:44;67.70;;;53.50;;
22425;SDS011;11380;50.822;15.790;2023-08-08T12:33:52;66.17;;;53.10;;
22425;SDS011;11380;50.822;15.790;2023-08-08T12:39:00;66.93;;;52.80;;
22425;SDS011;11380;50.822;15.790;2023-08-08T12:44:08;65.60;;;53.17;;
22425;SDS011;11380;50.822;15.790;2023-08-08T12:49:15;66.97;;;53.57;;
22425;SDS011;11380;50.822;15.790;2023-08-08T12:54:22;70.12;;;53.42;;
22425;SDS011;11380;50.822;15.790;2023-08-08T12:59:29;66.80;;;53.60;;
22425;SDS011;11380;50.822;15.790;2023-08-08T13:04:36;68.83;;;53.70;;
22425;SDS011;11380;50.822;15.790;2023-08-08T13:09:44;67.33;;;53.40;;
22425;SDS011;11380;50.822;15.790;2023-08-08T13:14:50;68.73;;;53.57;;
22425;SDS011;11380;50.822;15.790;2023-08-08T13:20:00;67.90;;;53.53;;
22425;SDS011;11380;50.822;15.790;2023-08-08T13:25:08;67.40;;;53.63;;
22425;SDS011;11380;50.822;15.790;2023-08-08T13:30:15;67.48;;;53.58;;
22425;SDS011;11380;50.822;15.790;2023-08-08T13:35:25;67.47;;;53.65;;
22425;SDS011;11380;50.822;15.790;2023-08-08T13:40:32;68.92;;;53.85;;
22425;SDS011;11380;50.822;15.790;2023-08-08T13:45:39;65.97;;;53.23;;
22425;SDS011;11380;50.822;15.790;2023-08-08T13:50:49;67.40;;;53.60;;
22425;SDS011;11380;50.822;15.790;2023-08-08T13:55:58;66.03;;;53.17;;
22425;SDS011;11380;50.822;15.790;2023-08-08T14:01:06;65.57;;;53.10;;
22425;SDS011;11380;50.822;15.790;2023-08-08T14:06:13;66.42;;;53.00;;
22425;SDS011;11380;50.822;15.790;2023-08-08T14:11:21;67.20;;;53.15;;
22425;SDS011;11380;50.822;15.790;2023-08-08T14:16:30;65.27;;;53.10;;
22425;SDS011;11380;50.822;15.790;2023-08-08T14:21:37;66.20;;;52.93;;
22425;SDS011;11380;50.822;15.790;2023-08-08T14:26:45;64.63;;;52.83;;
22425;SDS011;11380;50.822;15.790;2023-08-08T14:31:53;64.87;;;52.63;;
22425;SDS011;11380;50.822;15.790;2023-08-08T14:37:02;65.00;;;52.65;;
22425;SDS011;11380;50.822;15.790;2023-08-08T14:42:11;63.38;;;52.42;;
22425;SDS011;11380;50.822;15.790;2023-08-08T14:47:20;63.80;;;52.60;;
22425;SDS011;11380;50.822;15.790;2023-08-08T14:52:28;63.50;;;52.40;;
22425;SDS011;11380;50.822;15.790;2023-08-08T14:57:35;63.57;;;52.27;;
22425;SDS011;11380;50.822;15.790;2023-08-08T15:02:42;63.87;;;52.20;;
22425;SDS011;11380;50.822;15.790;2023-08-08T15:07:49;64.70;;;52.73;;
22425;SDS011;11380;50.822;15.790;2023-08-08T15:12:56;64.97;;;52.63;;
22425;SDS011;11380;50.822;15.790;2023-08-08T15:18:04;64.97;;;52.73;;
22425;SDS011;11380;50.822;15.790;2023-08-08T15:31:02;65.63;;;52.77;;
22425;SDS011;11380;50.822;15.790;2023-08-08T15:36:09;66.03;;;53.20;;
22425;SDS011;11380;50.822;15.790;2023-08-08T15:41:18;65.47;;;52.85;;
22425;SDS011;11380;50.822;15.790;2023-08-08T15:46:25;65.17;;;52.90;;
22425;SDS011;11380;50.822;15.790;2023-08-08T15:51:32;68.30;;;53.20;;
22425;SDS011;11380;50.822;15.790;2023-08-08T15:56:39;66.50;;;53.33;;
22425;SDS011;11380;50.822;15.790;2023-08-08T16:01:46;66.33;;;53.20;;
22425;SDS011;11380;50.822;15.790;2023-08-08T16:06:53;65.37;;;52.83;;
22425;SDS011;11380;50.822;15.790;2023-08-08T16:12:00;65.70;;;53.23;;
22425;SDS011;11380;50.822;15.790;2023-08-08T16:17:08;64.80;;;52.83;;
22425;SDS011;11380;50.822;15.790;2023-08-08T16:22:16;67.24;;;54.42;;
22425;SDS011;11380;50.822;15.790;2023-08-08T16:27:22;67.87;;;54.00;;
22425;SDS011;11380;50.822;15.790;2023-08-08T16:32:30;66.30;;;53.40;;
22425;SDS011;11380;50.822;15.790;2023-08-08T16:37:37;66.60;;;52.87;;
22425;SDS011;11380;50.822;15.790;2023-08-08T16:42:46;65.40;;;52.93;;
22425;SDS011;11380;50.822;15.790;2023-08-08T16:47:53;64.60;;;52.95;;
22425;SDS011;11380;50.822;15.790;2023-08-08T16:53:01;64.60;;;52.67;;
22425;SDS011;11380;50.822;15.790;2023-08-08T16:58:08;64.90;;;52.90;;
22425;SDS011;11380;50.822;15.790;2023-08-08T17:03:15;66.30;;;52.42;;
22425;SDS011;11380;50.822;15.790;2023-08-08T17:08:22;64.13;;;52.50;;
22425;SDS011;11380;50.822;15.790;2023-08-08T17:13:30;65.10;;;52.70;;
22425;SDS011;11380;50.822;15.790;2023-08-08T17:18:39;65.43;;;53.13;;
22425;SDS011;11380;50.822;15.790;2023-08-08T17:23:46;69.30;;;53.57;;
22425;SDS011;11380;50.822;15.790;2023-08-08T17:28:54;64.73;;;52.77;;
22425;SDS011;11380;50.822;15.790;2023-08-08T17:34:01;66.00;;;52.90;;
22425;SDS011;11380;50.822;15.790;2023-08-08T17:39:12;63.80;;;52.33;;
22425;SDS011;11380;50.822;15.790;2023-08-08T17:44:19;66.92;;;52.93;;
22425;SDS011;11380;50.822;15.790;2023-08-08T17:49:28;64.40;;;52.73;;
22425;SDS011;11380;50.822;15.790;2023-08-08T17:54:35;65.03;;;52.60;;
22425;SDS011;11380;50.822;15.790;2023-08-08T17:59:43;65.90;;;52.90;;
22425;SDS011;11380;50.822;15.790;2023-08-08T18:04:50;67.63;;;53.37;;
22425;SDS011;11380;50.822;15.790;2023-08-08T18:09:57;65.87;;;53.13;;
22425;SDS011;11380;50.822;15.790;2023-08-08T18:15:05;64.10;;;52.70;;
22425;SDS011;11380;50.822;15.790;2023-08-08T18:20:12;65.90;;;53.70;;
22425;SDS011;11380;50.822;15.790;2023-08-08T18:25:20;64.17;;;52.45;;
22425;SDS011;11380;50.822;15.790;2023-08-08T18:30:28;66.00;;;52.75;;
22425;SDS011;11380;50.822;15.790;2023-08-08T18:35:35;64.63;;;52.70;;
22425;SDS011;11380;50.822;15.790;2023-08-08T18:40:45;64.80;;;52.90;;
22425;SDS011;11380;50.822;15.790;2023-08-08T18:45:55;64.53;;;52.67;;
22425;SDS011;11380;50.822;15.790;2023-08-08T18:51:04;64.15;;;52.65;;
22425;SDS011;11380;50.822;15.790;2023-08-08T18:56:12;64.67;;;52.35;;
22425;SDS011;11380;50.822;15.790;2023-08-08T19:01:19;63.57;;;52.33;;
22425;SDS011;11380;50.822;15.790;2023-08-08T19:06:29;64.42;;;52.55;;
22425;SDS011;11380;50.822;15.790;2023-08-08T19:11:36;63.90;;;52.97;;
22425;SDS011;11380;50.822;15.790;2023-08-08T19:16:44;64.20;;;52.43;;
22425;SDS011;11380;50.822;15.790;2023-08-08T19:21:53;63.17;;;52.50;;
22425;SDS011;11380;50.822;15.790;2023-08-08T19:27:03;63.98;;;52.85;;
22425;SDS011;11380;50.822;15.790;2023-08-08T19:32:12;63.22;;;52.12;;
22425;SDS011;11380;50.822;15.790;2023-08-08T19:37:21;63.40;;;51.63;;
22425;SDS011;11380;50.822;15.790;2023-08-08T19:42:33;63.15;;;52.00;;
22425;SDS011;11380;50.822;15.790;2023-08-08T19:47:43;62.80;;;51.80;;
22425;SDS011;11380;50.822;15.790;2023-08-08T19:52:50;62.53;;;51.77;;
22425;SDS011;11380;50.822;15.790;2023-08-08T19:57:58;63.00;;;51.50;;
22425;SDS011;11380;50.822;15.790;2023-08-08T20:03:05;62.13;;;51.83;;
22425;SDS011;11380;50.822;15.790;2023-08-08T20:08:13;62.07;;;51.27;;
22425;SDS011;11380;50.822;15.790;2023-08-08T20:13:20;62.30;;;51.80;;
22425;SDS011;11380;50.822;15.790;2023-08-08T20:18:29;62.30;;;51.83;;
22425;SDS011;11380;50.822;15.790;2023-08-08T20:23:35;65.27;;;52.00;;
22425;SDS011;11380;50.822;15.790;2023-08-08T20:28:42;61.93;;;51.77;;
22425;SDS011;11380;50.822;15.790;2023-08-08T20:33:49;63.13;;;52.77;;
22425;SDS011;11380;50.822;15.790;2023-08-08T20:38:58;63.90;;;52.43;;
22425;SDS011;11380;50.822;15.790;2023-08-08T20:44:06;62.33;;;52.00;;
22425;SDS011;11380;50.822;15.790;2023-08-08T20:49:14;62.43;;;52.00;;
22425;SDS011;11380;50.822;15.790;2023-08-08T20:54:21;63.37;;;52.40;;
22425;SDS011;11380;50.822;15.790;2023-08-08T20:59:28;62.50;;;51.90;;
22425;SDS011;11380;50.822;15.790;2023-08-08T21:04:35;61.87;;;51.90;;
22425;SDS011;11380;50.822;15.790;2023-08-08T21:09:43;62.37;;;52.20;;
22425;SDS011;11380;50.822;15.790;2023-08-08T21:14:50;64.47;;;52.23;;
22425;SDS011;11380;50.822;15.790;2023-08-08T21:19:59;62.40;;;51.93;;
22425;SDS011;11380;50.822;15.790;2023-08-08T21:25:07;61.97;;;51.80;;
22425;SDS011;11380;50.822;15.790;2023-08-08T21:30:15;62.63;;;51.90;;
22425;SDS011;11380;50.822;15.790;2023-08-08T21:35:23;63.87;;;52.00;;
22425;SDS011;11380;50.822;15.790;2023-08-08T21:40:30;62.23;;;51.97;;
22425;SDS011;11380;50.822;15.790;2023-08-08T21:45:37;62.80;;;52.10;;
22425;SDS011;11380;50.822;15.790;2023-08-08T21:50:44;62.27;;;51.80;;
22425;SDS011;11380;50.822;15.790;2023-08-08T21:55:51;63.67;;;51.37;;
22425;SDS011;11380;50.822;15.790;2023-08-08T22:00:58;62.20;;;50.93;;
22425;SDS011;11380;50.822;15.790;2023-08-08T22:06:05;62.78;;;52.08;;
22425;SDS011;11380;50.822;15.790;2023-08-08T22:11:13;66.30;;;53.97;;
22425;SDS011;11380;50.822;15.790;2023-08-08T22:16:20;65.15;;;52.80;;
22425;SDS011;11380;50.822;15.790;2023-08-08T22:21:28;62.08;;;51.90;;
22425;SDS011;11380;50.822;15.790;2023-08-08T22:26:35;63.17;;;52.07;;
22425;SDS011;11380;50.822;15.790;2023-08-08T22:31:42;62.80;;;51.53;;
22425;SDS011;11380;50.822;15.790;2023-08-08T22:36:50;62.77;;;52.07;;
22425;SDS011;11380;50.822;15.790;2023-08-08T22:41:59;62.40;;;51.70;;
22425;SDS011;11380;50.822;15.790;2023-08-08T22:47:06;62.07;;;51.63;;
22425;SDS011;11380;50.822;15.790;2023-08-08T22:52:13;61.20;;;51.37;;
22425;SDS011;11380;50.822;15.790;2023-08-08T22:57:19;62.15;;;51.53;;
22425;SDS011;11380;50.822;15.790;2023-08-08T23:02:28;62.17;;;51.67;;
22425;SDS011;11380;50.822;15.790;2023-08-08T23:07:35;62.03;;;51.20;;
22425;SDS011;11380;50.822;15.790;2023-08-08T23:12:41;61.20;;;51.50;;
22425;SDS011;11380;50.822;15.790;2023-08-08T23:17:49;61.53;;;51.40;;
22425;SDS011;11380;50.822;15.790;2023-08-08T23:22:57;62.13;;;51.60;;
22425;SDS011;11380;50.822;15.790;2023-08-08T23:28:04;61.70;;;51.40;;
22425;SDS011;11380;50.822;15.790;2023-08-08T23:33:12;61.85;;;51.58;;
22425;SDS011;11380;50.822;15.790;2023-08-08T23:38:20;62.70;;;51.73;;
22425;SDS011;11380;50.822;15.790;2023-08-08T23:43:28;61.13;;;51.58;;
22425;SDS011;11380;50.822;15.790;2023-08-08T23:48:38;62.90;;;51.60;;
22425;SDS011;11380;50.822;15.790;2023-08-08T23:53:45;61.20;;;51.33;;
22425;SDS011;11380;50.822;15.790;2023-08-08T23:58:53;61.43;;;51.80;;
